createdAt,value
2023-05-06T00:00:54.101Z,23.45
2023-05-06T00:03:21.438Z,31.27
2023-05-06T00:05:49.398Z,27.27
2023-05-06T00:08:17.278Z,25.67
2023-05-06T00:10:46.026Z,27.75
2023-05-06T00:13:14.742Z,29.42
2023-05-06T00:15:41.918Z,28.55
2023-05-06T00:18:09.193Z,25.63
2023-05-06T00:20:36.490Z,27.90
2023-05-06T00:23:03.604Z,22.58
2023-05-06T00:25:30.650Z,29.55
2023-05-06T00:27:57.572Z,35.38
2023-05-06T00:30:25.800Z,29.77
2023-05-06T00:32:54.957Z,37.80
2023-05-06T00:35:22.066Z,35.10
2023-05-06T00:37:58.478Z,64.22
2023-05-06T00:40:25.595Z,93.72
2023-05-06T00:42:52.625Z,64.40
2023-05-06T00:45:19.577Z,42.90
2023-05-06T00:47:46.837Z,35.25
2023-05-06T00:50:14.079Z,33.97
2023-05-06T00:52:41.292Z,34.80
2023-05-06T00:55:09.708Z,34.15
2023-05-06T00:57:37.691Z,37.53
2023-05-06T01:03:28.977Z,32.07
2023-05-06T01:06:01.891Z,27.58
2023-05-06T01:08:47.631Z,32.03
2023-05-06T01:11:40.059Z,24.50
2023-05-06T01:14:18.308Z,26.77
2023-05-06T01:16:50.479Z,24.95
2023-05-06T01:19:34.984Z,26.50
2023-05-06T01:22:05.327Z,30.35
2023-05-06T01:24:43.664Z,29.52
2023-05-06T01:27:12.921Z,25.73
2023-05-06T01:29:46.702Z,29.48
2023-05-06T01:32:19.764Z,28.27
2023-05-06T01:35:08.948Z,29.00
2023-05-06T01:37:46.724Z,27.80
2023-05-06T01:40:16.839Z,28.38
2023-05-06T01:42:47.801Z,27.13
2023-05-06T01:45:17.146Z,32.70
2023-05-06T01:47:46.998Z,26.20
2023-05-06T01:50:14.527Z,26.58
2023-05-06T01:52:41.794Z,30.05
2023-05-06T01:55:09.782Z,26.75
2023-05-06T01:57:36.945Z,26.05
2023-05-06T02:00:04.451Z,27.08
2023-05-06T02:02:39.302Z,30.40
2023-05-06T02:05:08.676Z,20.38
2023-05-06T02:07:40.429Z,19.92
2023-05-06T02:10:11.628Z,20.65
2023-05-06T02:12:42.416Z,19.52
2023-05-06T02:15:10.099Z,21.33
2023-05-06T02:17:38.700Z,24.35
2023-05-06T02:20:06.509Z,21.27
2023-05-06T02:22:33.622Z,18.80
2023-05-06T02:25:01.272Z,19.35
2023-05-06T02:27:28.344Z,23.33
2023-05-06T02:29:55.692Z,22.45
2023-05-06T02:32:22.909Z,19.85
2023-05-06T02:34:49.927Z,22.95
2023-05-06T02:37:16.979Z,16.42
2023-05-06T02:39:44.131Z,25.33
2023-05-06T02:42:15.035Z,19.27
2023-05-06T02:44:42.533Z,20.88
2023-05-06T02:47:09.629Z,24.70
2023-05-06T02:49:39.234Z,18.00
2023-05-06T02:52:09.637Z,26.35
2023-05-06T02:54:39.517Z,19.80
2023-05-06T02:57:06.666Z,23.30
2023-05-06T02:59:35.872Z,27.95
2023-05-06T03:02:03.381Z,22.75
2023-05-06T03:04:30.908Z,22.75
2023-05-06T03:06:58.192Z,27.08
2023-05-06T03:09:25.332Z,27.95
2023-05-06T03:11:52.448Z,26.35
2023-05-06T03:14:20.896Z,27.05
2023-05-06T03:16:48.092Z,19.20
2023-05-06T03:19:16.065Z,22.88
2023-05-06T03:21:44.824Z,32.50
2023-05-06T03:24:12.135Z,20.70
2023-05-06T03:26:42.183Z,25.52
2023-05-06T03:29:11.765Z,23.67
2023-05-06T03:31:42.743Z,24.33
2023-05-06T03:34:11.437Z,21.63
2023-05-06T03:36:38.673Z,19.20
2023-05-06T03:39:05.983Z,24.30
2023-05-06T03:41:35.189Z,25.02
2023-05-06T03:44:02.479Z,20.48
2023-05-06T03:46:32.008Z,21.98
2023-05-06T03:49:00.955Z,28.05
2023-05-06T03:51:31.218Z,26.67
2023-05-06T03:53:58.472Z,18.15
2023-05-06T03:56:25.599Z,20.98
2023-05-06T03:58:55.292Z,19.50
2023-05-06T04:01:24.812Z,20.45
2023-05-06T04:03:52.950Z,22.75
2023-05-06T04:06:20.233Z,23.17
2023-05-06T04:08:47.729Z,21.30
2023-05-06T04:11:15.160Z,22.98
2023-05-06T04:13:42.853Z,26.08
2023-05-06T04:16:14.804Z,26.00
2023-05-06T04:18:47.672Z,26.67
2023-05-06T04:21:19.017Z,21.17
2023-05-06T04:23:52.824Z,24.92
2023-05-06T04:26:25.365Z,29.38
2023-05-06T04:28:52.445Z,30.05
2023-05-06T04:31:19.755Z,23.65
2023-05-06T04:33:50.133Z,24.55
2023-05-06T04:36:21.604Z,26.23
2023-05-06T04:39:10.579Z,30.63
2023-05-06T04:41:38.736Z,26.58
2023-05-06T04:44:06.464Z,26.67
2023-05-06T04:46:34.292Z,33.33
2023-05-06T04:49:02.985Z,30.52
2023-05-06T04:51:31.802Z,31.63
2023-05-06T04:53:59.902Z,25.50
2023-05-06T04:56:27.059Z,32.92
2023-05-06T04:58:54.415Z,34.55
2023-05-06T05:01:22.651Z,37.90
2023-05-06T05:03:53.031Z,33.17
2023-05-06T05:06:21.868Z,35.63
2023-05-06T05:08:48.998Z,29.65
2023-05-06T05:11:16.820Z,33.80
2023-05-06T05:13:43.913Z,34.15
2023-05-06T05:16:11.265Z,33.38
2023-05-06T05:18:41.452Z,37.88
2023-05-06T05:21:16.016Z,34.67
2023-05-06T05:23:43.612Z,38.33
2023-05-06T05:26:11.697Z,35.10
2023-05-06T05:28:40.076Z,33.65
2023-05-06T05:31:09.644Z,37.45
2023-05-06T05:33:37.792Z,33.65
2023-05-06T05:36:08.628Z,35.53
2023-05-06T05:38:40.438Z,29.73
2023-05-06T05:41:08.651Z,41.65
2023-05-06T05:43:36.154Z,33.30
2023-05-06T05:46:03.799Z,33.50
2023-05-06T05:48:32.973Z,35.92
2023-05-06T05:51:02.755Z,37.63
2023-05-06T05:53:30.010Z,32.97
2023-05-06T05:55:59.825Z,33.20
2023-05-06T05:58:27.177Z,38.75
2023-05-06T06:00:57.575Z,39.88
2023-05-06T06:03:25.263Z,40.83
2023-05-06T06:05:55.295Z,47.35
2023-05-06T06:08:28.639Z,47.42
2023-05-06T06:11:09.047Z,42.15
2023-05-06T06:13:53.712Z,40.22
2023-05-06T06:16:27.549Z,36.35
2023-05-06T06:19:00.571Z,38.03
2023-05-06T06:21:35.751Z,37.67
2023-05-06T06:24:13.186Z,34.30
2023-05-06T06:26:48.482Z,43.95
2023-05-06T06:29:16.698Z,36.42
2023-05-06T06:31:44.060Z,38.03
2023-05-06T06:34:12.944Z,44.38
2023-05-06T06:36:45.503Z,52.25
2023-05-06T06:39:20.309Z,42.17
2023-05-06T06:41:51.484Z,44.00
2023-05-06T06:44:18.705Z,42.08
2023-05-06T06:46:57.102Z,43.05
2023-05-06T06:49:33.877Z,48.15
2023-05-06T06:52:03.952Z,41.42
2023-05-06T06:54:43.173Z,46.15
2023-05-06T06:57:21.876Z,51.38
2023-05-06T06:59:57.298Z,44.03
2023-05-06T07:02:36.449Z,43.08
2023-05-06T07:05:17.943Z,39.17
2023-05-06T07:07:56.567Z,39.85
2023-05-06T07:10:34.990Z,46.75
2023-05-06T07:13:16.885Z,39.75
2023-05-06T07:15:53.102Z,38.20
2023-05-06T07:18:33.776Z,45.72
2023-05-06T07:21:32.388Z,44.00
2023-05-06T07:24:09.162Z,39.20
2023-05-06T07:26:44.914Z,37.40
2023-05-06T07:29:25.268Z,37.85
2023-05-06T07:32:01.101Z,37.42
2023-05-06T07:34:50.295Z,33.45
2023-05-06T07:37:34.463Z,33.55
2023-05-06T07:40:21.955Z,31.67
2023-05-06T07:43:00.077Z,34.75
2023-05-06T07:45:33.362Z,33.75
2023-05-06T07:48:11.549Z,31.35
2023-05-06T07:50:47.660Z,25.90
2023-05-06T07:53:31.301Z,27.88
2023-05-06T07:56:04.993Z,25.02
2023-05-06T07:58:51.516Z,26.80
2023-05-06T08:01:26.526Z,21.73
2023-05-06T08:04:04.793Z,20.45
2023-05-06T08:06:41.251Z,20.35
2023-05-06T08:09:19.697Z,18.30
2023-05-06T08:12:19.193Z,20.88
2023-05-06T08:14:58.494Z,23.58
2023-05-06T08:17:40.679Z,21.30
2023-05-06T08:20:25.204Z,20.60
2023-05-06T08:23:12.263Z,22.85
2023-05-06T08:26:14.897Z,19.83
2023-05-06T08:29:02.082Z,25.17
2023-05-06T08:31:46.071Z,25.10
2023-05-06T08:34:26.809Z,23.55
2023-05-06T08:37:08.076Z,23.02
2023-05-06T08:39:50.407Z,19.27
2023-05-06T08:42:46.872Z,20.75
2023-05-06T08:45:23.746Z,25.27
2023-05-06T08:48:07.016Z,16.55
2023-05-06T08:50:43.364Z,20.98
2023-05-06T08:53:21.817Z,16.58
2023-05-06T08:56:27.556Z,20.75
2023-05-06T08:59:09.658Z,18.77
2023-05-06T09:01:53.745Z,20.13
2023-05-06T09:04:36.943Z,17.92
2023-05-06T09:07:25.889Z,22.90
2023-05-06T09:10:11.333Z,18.48
2023-05-06T09:12:48.027Z,20.05
2023-05-06T09:15:24.258Z,17.25
2023-05-06T09:18:00.970Z,21.25
2023-05-06T09:20:39.673Z,16.48
2023-05-06T09:23:21.105Z,19.92
2023-05-06T09:25:53.815Z,16.77
2023-05-06T09:28:37.164Z,22.70
2023-05-06T09:31:39.948Z,19.48
2023-05-06T09:34:28.437Z,19.77
2023-05-06T09:37:28.304Z,13.45
2023-05-06T09:40:04.618Z,13.80
2023-05-06T09:42:35.423Z,17.30
2023-05-06T09:45:21.095Z,14.63
2023-05-06T09:48:04.731Z,10.75
2023-05-06T09:50:46.223Z,13.18
2023-05-06T09:53:35.802Z,8.65
2023-05-06T09:56:27.304Z,11.77
2023-05-06T09:59:09.542Z,11.82
2023-05-06T10:01:52.713Z,11.88
2023-05-06T10:04:29.992Z,8.57
2023-05-06T10:07:13.885Z,13.00
2023-05-06T10:12:36.955Z,11.27
2023-05-06T10:15:27.359Z,5.60
2023-05-06T10:18:08.283Z,9.82
2023-05-06T10:20:49.783Z,11.02
2023-05-06T10:23:53.853Z,11.95
2023-05-06T10:29:17.960Z,6.32
2023-05-06T10:32:02.250Z,9.02
2023-05-06T10:34:56.758Z,5.75
2023-05-06T10:37:29.315Z,8.57
2023-05-06T10:40:00.965Z,6.93
2023-05-06T10:42:34.590Z,9.43
2023-05-06T10:45:04.494Z,10.40
2023-05-06T10:47:56.331Z,11.35
2023-05-06T10:50:28.031Z,10.18
2023-05-06T10:53:01.212Z,9.32
2023-05-06T10:55:33.765Z,7.50
2023-05-06T10:58:04.448Z,8.77
2023-05-06T11:00:33.210Z,11.95
2023-05-06T11:03:09.372Z,9.80
2023-05-06T11:05:52.763Z,12.30
2023-05-06T11:08:27.678Z,8.20
2023-05-06T11:10:55.404Z,4.97
2023-05-06T11:13:29.380Z,6.38
2023-05-06T11:16:00.390Z,6.65
2023-05-06T11:18:49.483Z,7.43
2023-05-06T11:21:34.589Z,6.93
2023-05-06T11:24:04.959Z,10.02
2023-05-06T11:26:49.924Z,6.47
2023-05-06T11:29:38.073Z,9.98
2023-05-06T11:32:23.696Z,10.32
2023-05-06T11:35:11.821Z,7.20
2023-05-06T11:37:48.071Z,9.10
2023-05-06T11:40:17.291Z,7.68
2023-05-06T11:43:26.264Z,10.80
2023-05-06T11:46:00.804Z,6.03
2023-05-06T11:48:33.748Z,13.38
2023-05-06T11:51:19.087Z,9.43
2023-05-06T11:54:17.566Z,7.82
2023-05-06T11:57:18.631Z,15.73
2023-05-06T12:00:08.989Z,13.20
2023-05-06T12:02:49.410Z,10.23
2023-05-06T12:05:23.757Z,11.32
2023-05-06T12:08:41.081Z,12.02
2023-05-06T12:11:16.363Z,8.48
2023-05-06T12:13:58.737Z,8.38
2023-05-06T12:16:35.775Z,7.97
2023-05-06T12:19:06.370Z,12.85
2023-05-06T12:21:42.821Z,8.35
2023-05-06T12:24:11.074Z,13.07
2023-05-06T12:26:55.878Z,9.20
2023-05-06T12:29:29.787Z,11.27
2023-05-06T12:32:25.036Z,7.43
2023-05-06T12:34:59.888Z,11.30
2023-05-06T12:37:36.181Z,10.60
2023-05-06T12:40:12.046Z,12.93
2023-05-06T12:43:03.692Z,19.30
2023-05-06T12:45:38.114Z,17.27
2023-05-06T12:48:35.445Z,15.77
2023-05-06T12:51:31.171Z,11.20
2023-05-06T12:54:05.580Z,13.10
2023-05-06T12:56:36.659Z,13.18
2023-05-06T12:59:09.210Z,7.60
2023-05-06T13:01:42.388Z,11.33
2023-05-06T13:04:12.719Z,9.45
2023-05-06T13:06:49.070Z,9.57
2023-05-06T13:09:26.170Z,12.88
2023-05-06T13:12:02.747Z,12.55
2023-05-06T13:14:44.803Z,9.52
2023-05-06T13:17:18.033Z,12.40
2023-05-06T13:19:51.359Z,9.93
2023-05-06T13:22:23.980Z,12.43
2023-05-06T13:24:54.870Z,9.90
2023-05-06T13:27:33.441Z,7.40
2023-05-06T13:30:07.709Z,7.53
2023-05-06T13:32:38.223Z,7.30
2023-05-06T13:35:10.576Z,7.28
2023-05-06T13:37:41.410Z,8.82
2023-05-06T13:40:15.184Z,4.45
2023-05-06T13:42:56.434Z,5.63
2023-05-06T13:45:35.393Z,8.13
2023-05-06T13:48:05.323Z,5.35
2023-05-06T13:50:46.020Z,8.60
2023-05-06T13:53:26.590Z,4.43
2023-05-06T13:56:21.289Z,7.03
2023-05-06T13:59:07.194Z,15.23
2023-05-06T14:01:46.938Z,5.13
2023-05-06T14:04:19.472Z,6.65
2023-05-06T14:07:01.508Z,6.35
2023-05-06T14:09:46.710Z,7.75
2023-05-06T14:15:11.526Z,5.93
2023-05-06T14:17:49.711Z,5.85
2023-05-06T14:20:27.950Z,4.47
2023-05-06T14:23:00.523Z,8.45
2023-05-06T14:25:30.964Z,5.63
2023-05-06T14:31:05.935Z,3.33
2023-05-06T14:33:50.595Z,3.60
2023-05-06T14:36:31.314Z,3.42
2023-05-06T14:41:42.385Z,9.00
2023-05-06T14:46:48.015Z,5.32
2023-05-06T14:49:15.366Z,7.57
2023-05-06T14:51:48.077Z,7.93
2023-05-06T14:54:38.374Z,6.53
2023-05-06T14:57:31.971Z,10.57
2023-05-06T15:00:07.546Z,6.00
2023-05-06T15:02:42.629Z,6.40
2023-05-06T15:05:24.820Z,10.48
2023-05-06T15:08:01.023Z,11.52
2023-05-06T15:10:41.585Z,7.35
2023-05-06T15:13:25.317Z,9.75
2023-05-06T15:18:33.768Z,7.05
2023-05-06T15:21:01.754Z,9.82
2023-05-06T15:23:31.469Z,10.50
2023-05-06T15:26:06.629Z,6.30
2023-05-06T15:28:37.581Z,7.95
2023-05-06T15:31:12.778Z,4.30
2023-05-06T15:33:48.011Z,7.57
2023-05-06T15:36:23.744Z,9.10
2023-05-06T15:39:13.719Z,6.25
2023-05-06T15:41:56.166Z,14.02
2023-05-06T15:44:23.501Z,11.80
2023-05-06T15:46:50.696Z,13.05
2023-05-06T15:52:01.031Z,11.65
2023-05-06T15:54:50.439Z,9.55
2023-05-06T16:00:13.678Z,11.15
2023-05-06T16:02:47.154Z,10.88
2023-05-06T16:05:14.486Z,10.52
2023-05-06T16:07:43.992Z,7.63
2023-05-06T16:10:16.530Z,5.15
2023-05-06T16:12:57.972Z,8.23
2023-05-06T16:15:38.462Z,14.52
2023-05-06T16:18:25.218Z,11.32
2023-05-06T16:20:56.841Z,9.65
2023-05-06T16:23:26.907Z,11.65
2023-05-06T16:26:00.378Z,7.22
2023-05-06T16:30:56.177Z,9.70
2023-05-06T16:33:26.071Z,9.80
2023-05-06T16:35:59.427Z,13.75
2023-05-06T16:38:27.362Z,12.18
2023-05-06T16:41:03.300Z,9.70
2023-05-06T16:43:33.381Z,8.25
2023-05-06T16:46:00.929Z,9.23
2023-05-06T16:48:30.661Z,9.88
2023-05-06T16:51:04.896Z,9.93
2023-05-06T16:53:45.499Z,8.20
2023-05-06T16:56:13.540Z,6.78
2023-05-06T16:58:46.032Z,8.43
2023-05-06T17:01:18.255Z,7.10
2023-05-06T17:03:46.192Z,12.57
2023-05-06T17:06:13.919Z,9.00
2023-05-06T17:08:44.211Z,7.90
2023-05-06T17:11:23.324Z,13.60
2023-05-06T17:13:50.786Z,9.45
2023-05-06T17:16:20.783Z,10.18
2023-05-06T17:18:50.786Z,6.93
2023-05-06T17:21:18.669Z,9.18
2023-05-06T17:23:52.875Z,11.45
2023-05-06T17:26:25.694Z,12.82
2023-05-06T17:28:52.908Z,6.93
2023-05-06T17:31:20.368Z,8.70
2023-05-06T17:33:53.557Z,11.27
2023-05-06T17:36:34.881Z,10.25
2023-05-06T17:39:10.399Z,6.95
2023-05-06T17:41:37.800Z,6.60
2023-05-06T17:44:06.798Z,17.63
2023-05-06T17:46:34.066Z,15.63
2023-05-06T17:49:03.879Z,8.23
2023-05-06T17:51:31.769Z,7.32
2023-05-06T17:53:59.733Z,9.32
2023-05-06T17:56:29.751Z,14.35
2023-05-06T17:59:06.747Z,9.45
2023-05-06T18:01:41.445Z,10.38
2023-05-06T18:04:10.968Z,7.60
2023-05-06T18:06:38.638Z,8.52
2023-05-06T18:09:06.152Z,6.82
2023-05-06T18:11:37.507Z,10.30
2023-05-06T18:14:08.980Z,10.32
2023-05-06T18:16:37.919Z,8.75
2023-05-06T18:19:05.424Z,11.35
2023-05-06T18:21:38.129Z,8.95
2023-05-06T18:24:17.279Z,10.57
2023-05-06T18:26:51.411Z,9.10
2023-05-06T18:29:30.281Z,11.15
2023-05-06T18:32:06.841Z,11.55
2023-05-06T18:34:37.497Z,8.60
2023-05-06T18:37:07.888Z,10.82
2023-05-06T18:39:45.745Z,11.90
2023-05-06T18:42:13.085Z,10.93
2023-05-06T18:44:53.759Z,10.70
2023-05-06T18:47:27.363Z,8.10
2023-05-06T18:50:02.834Z,8.52
2023-05-06T18:52:32.672Z,12.43
2023-05-06T18:55:00.084Z,8.45
2023-05-06T18:57:27.838Z,10.63
2023-05-06T18:59:58.200Z,12.65
2023-05-06T19:02:26.965Z,9.52
2023-05-06T19:04:56.908Z,9.80
2023-05-06T19:07:27.084Z,10.93
2023-05-06T19:10:00.876Z,15.73
2023-05-06T19:12:40.591Z,10.43
2023-05-06T19:15:08.746Z,9.35
2023-05-06T19:17:39.428Z,11.20
2023-05-06T19:20:09.784Z,15.93
2023-05-06T19:22:37.099Z,13.35
2023-05-06T19:25:04.529Z,11.73
2023-05-06T19:27:35.150Z,13.40
2023-05-06T19:30:05.104Z,14.93
2023-05-06T19:32:33.104Z,16.90
2023-05-06T19:35:08.372Z,16.90
2023-05-06T19:37:36.079Z,12.88
2023-05-06T19:40:06.884Z,14.52
2023-05-06T19:42:37.236Z,12.93
2023-05-06T19:45:09.038Z,15.68
2023-05-06T19:47:36.393Z,13.52
2023-05-06T19:50:06.199Z,14.88
2023-05-06T19:52:34.830Z,14.10
2023-05-06T19:55:03.400Z,11.85
2023-05-06T19:57:34.141Z,13.38
2023-05-06T20:00:05.983Z,15.02
2023-05-06T20:02:33.941Z,10.35
2023-05-06T20:05:01.018Z,14.23
2023-05-06T20:07:30.607Z,13.35
2023-05-06T20:09:58.751Z,17.38
2023-05-06T20:12:29.181Z,13.95
2023-05-06T20:14:56.824Z,18.27
2023-05-06T20:17:26.647Z,18.33
2023-05-06T20:19:58.757Z,19.10
2023-05-06T20:22:26.596Z,15.25
2023-05-06T20:24:54.092Z,16.02
2023-05-06T20:27:21.497Z,15.10
2023-05-06T20:29:50.043Z,15.55
2023-05-06T20:32:17.305Z,15.25
2023-05-06T20:34:44.348Z,16.48
2023-05-06T20:37:12.111Z,12.55
2023-05-06T20:39:39.282Z,16.55
2023-05-06T20:42:09.939Z,17.77
2023-05-06T20:44:41.421Z,18.60
2023-05-06T20:47:12.679Z,12.93
2023-05-06T20:49:40.046Z,15.38
2023-05-06T20:52:08.214Z,15.05
2023-05-06T20:54:35.306Z,12.48
2023-05-06T20:57:05.282Z,12.27
2023-05-06T20:59:32.437Z,18.35
2023-05-06T21:01:59.713Z,14.25
2023-05-06T21:04:27.028Z,12.35
2023-05-06T21:06:54.090Z,18.02
2023-05-06T21:09:23.840Z,14.32
2023-05-06T21:11:51.782Z,14.43
2023-05-06T21:14:19.131Z,16.63
2023-05-06T21:16:46.181Z,8.63
2023-05-06T21:19:13.497Z,11.55
2023-05-06T21:21:40.611Z,8.20
2023-05-06T21:24:08.713Z,8.90
2023-05-06T21:26:35.896Z,9.38
2023-05-06T21:29:02.957Z,9.10
2023-05-06T21:31:30.457Z,8.52
2023-05-06T21:33:58.989Z,12.27
2023-05-06T21:36:26.331Z,10.82
2023-05-06T21:39:08.127Z,11.40
2023-05-06T21:41:36.256Z,6.90
2023-05-06T21:44:04.707Z,14.73
2023-05-06T21:46:32.668Z,15.85
2023-05-06T21:48:59.985Z,10.43
2023-05-06T21:51:35.309Z,8.50
2023-05-06T21:54:03.130Z,6.07
2023-05-06T21:56:30.839Z,8.52
2023-05-06T21:59:01.300Z,11.40
2023-05-06T22:01:31.397Z,9.43
2023-05-06T22:04:01.883Z,13.20
2023-05-06T22:06:31.757Z,8.80
2023-05-06T22:09:00.199Z,10.65
2023-05-06T22:11:27.386Z,13.07
2023-05-06T22:13:54.396Z,11.82
2023-05-06T22:16:22.338Z,8.73
2023-05-06T22:18:49.586Z,9.82
2023-05-06T22:21:16.882Z,12.23
2023-05-06T22:23:44.751Z,6.88
2023-05-06T22:26:13.452Z,10.40
2023-05-06T22:28:42.290Z,11.65
2023-05-06T22:31:10.016Z,10.07
2023-05-06T22:33:37.068Z,8.60
2023-05-06T22:36:04.512Z,9.68
2023-05-06T22:38:32.686Z,11.75
2023-05-06T22:41:04.544Z,17.58
2023-05-06T22:43:36.108Z,8.70
2023-05-06T22:46:04.064Z,15.75
2023-05-06T22:48:34.981Z,12.95
2023-05-06T22:51:05.921Z,13.82
2023-05-06T22:53:33.027Z,13.18
2023-05-06T22:56:00.180Z,12.48
2023-05-06T22:58:27.242Z,12.85
2023-05-06T23:00:55.080Z,11.15
2023-05-06T23:03:25.288Z,11.48
2023-05-06T23:05:52.531Z,14.52
2023-05-06T23:08:19.756Z,12.55
2023-05-06T23:10:47.081Z,16.73
2023-05-06T23:13:16.568Z,19.33
2023-05-06T23:15:43.715Z,9.38
2023-05-06T23:18:11.640Z,11.13
2023-05-06T23:20:38.874Z,9.18
2023-05-06T23:23:08.920Z,18.20
2023-05-06T23:25:36.269Z,10.00
2023-05-06T23:28:03.643Z,7.53
2023-05-06T23:30:30.944Z,8.57
2023-05-06T23:32:58.225Z,11.15
2023-05-06T23:35:26.298Z,11.30
2023-05-06T23:37:53.426Z,9.18
2023-05-06T23:40:23.722Z,7.90
2023-05-06T23:42:50.762Z,9.77
2023-05-06T23:45:17.780Z,9.23
2023-05-06T23:47:44.846Z,11.00
2023-05-06T23:50:12.656Z,8.93
2023-05-06T23:52:41.043Z,12.68
2023-05-06T23:55:08.627Z,8.18
2023-05-06T23:57:39.071Z,9.05
